Terminal Aerodrome Forecast
Issued by NWS

Home | Current Version | Previous Version | Text Only | Print | Product List | Glossary On
Versions: 1 2 3 4 5 6 7 8 9 10 11 12 13 14 15 16 17 18 19 20 21
000
FTUS41 KPBZ 240000 AAA
TAFAGC
TAF AMD
KAGC 240056Z 2401/2424 33012KT P6SM BKN025
      TEMPO 2401/2403 P6SM BKN015
     FM240800 34006KT 4SM BR BKN015
     FM241400 36008KT P6SM SCT035=

USA.gov is the U.S. government's official web portal to all federal, state and local government web resources and services.